Time;durP1;ratioP1;P1;durP2;ratioP2;P2;SDS_P1;SDS_P2;PMS_P1;PMS_P2;Temp;Humidity;BMP_temperature;BMP_pressure;BME280_temperature;BME280_humidity;BME280_pressure;Samples;Min_cycle;Max_cycle;Signal;HPM_P1;HPM_P2
2022/07/25 00:01:13;;;;;;;4.00;3.50;;;16.60;99.90;;;;;;5285615;28;20499;-70
2022/07/25 00:03:54;;;;;;;4.20;3.30;;;16.80;99.90;;;;;;5275033;28;20035;-71
2022/07/25 00:06:30;;;;;;;3.75;3.20;;;16.90;99.90;;;;;;5271848;28;20071;-71
2022/07/25 00:09:09;;;;;;;3.42;3.00;;;16.70;99.90;;;;;;5271820;28;20016;-70
2022/07/25 00:11:40;;;;;;;3.50;3.10;;;16.90;99.90;;;;;;5271554;28;20127;-70
2022/07/25 00:14:11;;;;;;;3.60;3.13;;;16.70;99.90;;;;;;5271623;28;20027;-69
2022/07/25 00:16:54;;;;;;;4.45;3.33;;;16.60;99.90;;;;;;5271908;28;20103;-70
2022/07/25 00:19:25;;;;;;;3.50;3.20;;;16.40;99.90;;;;;;5271641;28;20103;-70
2022/07/25 00:21:57;;;;;;;3.92;3.00;;;16.70;99.90;;;;;;5271558;28;20459;-72
2022/07/25 00:24:28;;;;;;;4.25;3.67;;;16.70;99.90;;;;;;5271540;28;20055;-69
2022/07/25 00:26:59;;;;;;;3.80;3.50;;;16.30;99.90;;;;;;5271655;28;20059;-71
2022/07/25 00:29:30;;;;;;;7.70;3.80;;;16.40;99.90;;;;;;5271728;28;20016;-69
2022/07/25 00:32:01;;;;;;;3.88;3.05;;;16.50;99.90;;;;;;5271335;28;20127;-71
2022/07/25 00:34:31;;;;;;;3.50;3.20;;;16.50;99.90;;;;;;5271236;28;20016;-70
2022/07/25 00:37:02;;;;;;;3.40;3.10;;;16.40;99.90;;;;;;5271423;28;20024;-70
2022/07/25 02:08:15;;;;;;;3.65;3.25;;;16.00;99.90;;;;;;5308291;27;20423;-71
2022/07/25 02:10:46;;;;;;;3.60;3.30;;;15.50;99.90;;;;;;5308402;27;20031;-68
2022/07/25 02:13:17;;;;;;;4.18;3.40;;;16.10;99.90;;;;;;5308403;27;20024;-69
2022/07/25 02:15:48;;;;;;;4.18;3.78;;;16.30;99.90;;;;;;5290025;28;20473;-69
2022/07/25 02:18:19;;;;;;;4.57;3.47;;;16.20;99.90;;;;;;5308237;27;20031;-69
2022/07/25 02:20:50;;;;;;;3.85;3.15;;;15.70;99.90;;;;;;5308241;27;20473;-73
2022/07/25 02:23:21;;;;;;;3.50;3.20;;;15.90;99.90;;;;;;5308090;27;20028;-71
2022/07/25 02:25:52;;;;;;;4.13;3.60;;;16.10;99.90;;;;;;5308015;28;20458;-69
2022/07/25 02:28:22;;;;;;;6.45;3.30;;;16.10;99.90;;;;;;5308016;28;20027;-70
2022/07/25 02:30:53;;;;;;;3.95;3.55;;;16.20;99.90;;;;;;5307814;27;20031;-69
2022/07/25 02:33:24;;;;;;;3.67;3.38;;;16.30;99.90;;;;;;5308017;27;20027;-68
2022/07/25 02:35:55;;;;;;;3.38;3.08;;;16.00;99.90;;;;;;5307835;27;20067;-69
2022/07/25 02:38:26;;;;;;;3.50;3.20;;;16.30;99.90;;;;;;5307672;28;20110;-69
2022/07/25 02:40:57;;;;;;;3.30;2.70;;;16.10;99.90;;;;;;5307754;28;20029;-71
2022/07/25 02:43:27;;;;;;;5.43;3.70;;;16.20;99.90;;;;;;5307756;27;20427;-70
2022/07/25 02:45:58;;;;;;;4.97;3.65;;;15.60;99.90;;;;;;5307899;27;20096;-70
2022/07/25 02:48:29;;;;;;;4.97;3.22;;;15.70;99.90;;;;;;5289121;28;20054;-72
2022/07/25 02:51:00;;;;;;;4.00;3.60;;;15.90;99.90;;;;;;5289259;28;20042;-72
2022/07/25 02:53:31;;;;;;;4.95;3.40;;;15.80;99.90;;;;;;5307649;27;20030;-71
2022/07/25 02:56:01;;;;;;;5.07;3.35;;;16.00;99.90;;;;;;5307519;28;20434;-72
2022/07/25 02:58:32;;;;;;;3.30;3.00;;;16.20;99.90;;;;;;5307248;27;20020;-73
2022/07/25 03:01:03;;;;;;;;;;;15.60;99.90;;;;;;5305016;27;20034;-73
2022/07/25 03:03:34;;;;;;;4.10;3.70;;;15.80;99.90;;;;;;5307337;27;20041;-72
2022/07/25 03:06:05;;;;;;;4.20;3.33;;;16.00;99.90;;;;;;5302014;27;20402;-72
2022/07/25 03:08:36;;;;;;;3.35;3.03;;;15.80;99.90;;;;;;5286931;28;20028;-70
2022/07/25 03:11:06;;;;;;;6.35;3.03;;;16.00;99.90;;;;;;5277411;28;20492;-71
2022/07/25 03:13:37;;;;;;;3.70;3.30;;;15.90;99.90;;;;;;5275226;28;20012;-72
2022/07/25 03:16:08;;;;;;;3.40;3.10;;;15.90;99.90;;;;;;5291037;28;20046;-73
2022/07/25 03:18:39;;;;;;;3.88;2.80;;;15.70;99.90;;;;;;5292747;28;20026;-71
2022/07/25 03:21:10;;;;;;;4.93;3.05;;;15.70;99.90;;;;;;5286510;28;20479;-72
2022/07/25 03:23:41;;;;;;;6.40;3.35;;;16.00;99.90;;;;;;5271744;28;20016;-68
2022/07/25 03:26:11;;;;;;;6.22;3.45;;;15.70;99.90;;;;;;5270820;28;20502;-68
2022/07/25 03:28:42;;;;;;;3.80;3.35;;;16.00;99.90;;;;;;5270569;28;20527;-70
2022/07/25 03:31:13;;;;;;;5.22;3.35;;;15.90;99.90;;;;;;5279052;28;20396;-71
2022/07/25 03:33:44;;;;;;;4.65;3.28;;;16.00;99.90;;;;;;5271635;28;20020;-72
2022/07/25 03:36:15;;;;;;;6.85;3.30;;;16.00;99.90;;;;;;5291941;28;20050;-70
2022/07/25 03:38:46;;;;;;;4.18;3.28;;;16.00;99.90;;;;;;5290933;28;20023;-72
2022/07/25 03:41:17;;;;;;;4.47;3.35;;;16.10;99.90;;;;;;5292000;28;20421;-73
2022/07/25 03:43:48;;;;;;;5.40;2.90;;;16.10;99.90;;;;;;5292025;28;20020;-72
2022/07/25 03:46:18;;;;;;;4.95;2.92;;;16.30;99.90;;;;;;5292200;28;20022;-69
2022/07/25 03:48:49;;;;;;;3.40;2.72;;;16.40;99.90;;;;;;5292133;28;20103;-72
2022/07/25 03:51:20;;;;;;;3.63;3.28;;;16.40;99.90;;;;;;5292172;28;20031;-72
2022/07/25 03:54:12;;;;;;;3.28;2.97;;;16.20;99.90;;;;;;5292184;28;20094;-73
2022/07/25 03:56:47;;;;;;;5.07;2.80;;;16.40;99.90;;;;;;5291821;28;20048;-73
2022/07/25 03:59:19;;;;;;;3.67;3.05;;;16.50;99.90;;;;;;5291785;28;20485;-72
2022/07/25 04:01:50;;;;;;;3.50;3.20;;;16.60;99.90;;;;;;5291850;28;20034;-69
2022/07/25 04:04:21;;;;;;;3.15;2.78;;;17.00;99.90;;;;;;5291848;28;20098;-68
2022/07/25 04:06:52;;;;;;;4.15;3.20;;;16.90;99.90;;;;;;5273195;28;20147;-71
2022/07/25 04:09:23;;;;;;;3.65;3.10;;;16.90;99.90;;;;;;5291760;28;20019;-72
2022/07/25 04:11:54;;;;;;;4.55;3.22;;;17.00;99.90;;;;;;5291640;28;20027;-72
2022/07/25 04:14:24;;;;;;;3.88;2.80;;;17.30;99.90;;;;;;5291668;28;20034;-73
2022/07/25 04:16:55;;;;;;;4.55;3.10;;;17.60;99.90;;;;;;5291335;28;20118;-69
2022/07/25 04:19:26;;;;;;;4.07;2.92;;;17.60;99.90;;;;;;5290287;28;20098;-72
2022/07/25 04:21:57;;;;;;;3.38;2.80;;;17.60;99.90;;;;;;5291529;28;20019;-72
2022/07/25 04:24:28;;;;;;;3.38;2.65;;;17.90;99.90;;;;;;5291276;28;20344;-68
2022/07/25 04:26:58;;;;;;;3.47;3.17;;;17.60;99.90;;;;;;5291293;28;20096;-71
2022/07/25 04:29:29;;;;;;;3.22;2.60;;;17.60;99.90;;;;;;5291392;28;20024;-72
2022/07/25 04:32:00;;;;;;;5.80;2.95;;;17.50;99.90;;;;;;5291037;28;20047;-72
2022/07/25 04:34:31;;;;;;;3.60;2.50;;;17.90;99.90;;;;;;5290990;28;19903;-72
2022/07/25 04:37:02;;;;;;;3.90;2.78;;;17.90;99.90;;;;;;5290865;28;20053;-72
2022/07/25 04:39:32;;;;;;;4.43;2.85;;;18.20;99.90;;;;;;5290870;28;20488;-68
2022/07/25 04:42:03;;;;;;;3.40;2.45;;;18.60;99.90;;;;;;5291112;28;20027;-72
2022/07/25 04:44:34;;;;;;;4.22;2.60;;;18.80;99.90;;;;;;5290840;28;20027;-71
2022/07/25 04:47:05;;;;;;;2.83;2.60;;;18.90;99.90;;;;;;5290913;28;20054;-72
2022/07/25 04:49:36;;;;;;;3.53;2.53;;;19.20;99.90;;;;;;5290703;28;20069;-72
2022/07/25 04:52:07;;;;;;;4.03;2.60;;;19.10;99.90;;;;;;5290686;28;20024;-73
2022/07/25 04:54:37;;;;;;;4.35;2.28;;;19.40;99.90;;;;;;5290768;28;20023;-72
2022/07/25 04:57:08;;;;;;;2.80;2.50;;;19.60;99.90;;;;;;5290427;28;20044;-70
2022/07/25 04:59:39;;;;;;;3.13;2.25;;;19.90;99.90;;;;;;5290566;28;20024;-72
2022/07/25 05:02:10;;;;;;;4.15;2.53;;;20.30;99.90;;;;;;5290783;28;20031;-72
2022/07/25 05:04:41;;;;;;;4.78;2.40;;;20.50;99.90;;;;;;5290422;28;20072;-72
2022/07/25 05:07:11;;;;;;;3.58;2.20;;;20.70;99.90;;;;;;5290428;28;20445;-74
2022/07/25 05:09:43;;;;;;;4.28;2.00;;;20.90;99.90;;;;;;5290359;28;20046;-72
2022/07/25 05:12:14;;;;;;;2.60;2.05;;;21.00;99.90;;;;;;5290564;28;20132;-73
2022/07/25 05:14:44;;;;;;;2.40;2.10;;;21.40;99.90;;;;;;5290509;28;20053;-69
2022/07/25 05:17:15;;;;;;;3.40;2.22;;;21.70;99.90;;;;;;5290273;28;20054;-73
2022/07/25 05:19:46;;;;;;;2.60;2.40;;;21.90;99.90;;;;;;5290283;28;20027;-73
2022/07/25 05:22:17;;;;;;;4.30;2.22;;;22.00;99.90;;;;;;5290068;28;20478;-73
2022/07/25 05:24:48;;;;;;;5.97;2.63;;;22.20;99.90;;;;;;5278315;28;20066;-72
2022/07/25 05:27:18;;;;;;;4.32;2.92;;;22.20;99.90;;;;;;5279543;28;20024;-71
2022/07/25 05:29:49;;;;;;;5.63;2.90;;;22.60;99.90;;;;;;5289873;28;20031;-69
2022/07/25 05:32:20;;;;;;;6.25;3.10;;;23.00;99.90;;;;;;5289758;28;20110;-70
2022/07/25 05:34:51;;;;;;;7.15;2.90;;;23.10;99.90;;;;;;5290067;28;20024;-72
2022/07/25 05:37:22;;;;;;;7.72;3.58;;;23.10;99.90;;;;;;5289553;28;20119;-71
2022/07/25 05:39:52;;;;;;;5.05;2.90;;;23.50;99.90;;;;;;5290108;28;20038;-69
2022/07/25 05:42:23;;;;;;;5.07;2.90;;;23.90;99.90;;;;;;5290168;28;20082;-69
2022/07/25 05:44:54;;;;;;;5.13;2.70;;;24.30;99.90;;;;;;5290304;28;20024;-69
2022/07/25 05:47:25;;;;;;;4.88;2.30;;;24.20;99.90;;;;;;5290144;28;20016;-73
2022/07/25 05:49:56;;;;;;;6.75;2.17;;;24.60;99.90;;;;;;5290224;28;20027;-70
2022/07/25 05:52:27;;;;;;;4.90;2.40;;;24.50;99.90;;;;;;5290120;28;20019;-73
2022/07/25 05:54:57;;;;;;;4.85;1.60;;;24.50;99.90;;;;;;5290158;28;20019;-72
2022/07/25 05:57:28;;;;;;;4.65;1.60;;;24.50;99.90;;;;;;5271346;28;20076;-69
2022/07/25 05:59:59;;;;;;;7.43;2.10;;;24.60;99.90;;;;;;5271731;28;20019;-73
2022/07/25 06:02:30;;;;;;;8.35;1.83;;;24.60;99.90;;;;;;5290187;28;20027;-72
2022/07/25 06:05:01;;;;;;;7.05;1.80;;;24.60;99.90;;;;;;5290002;28;20028;-73
2022/07/25 06:07:32;;;;;;;5.65;1.80;;;24.80;99.90;;;;;;5289727;28;20047;-70
2022/07/25 06:10:03;;;;;;;8.50;1.95;;;24.80;99.90;;;;;;5289973;28;20371;-69
2022/07/25 06:12:34;;;;;;;3.72;2.00;;;24.90;99.90;;;;;;5290035;28;20462;-70
2022/07/25 06:15:05;;;;;;;3.60;1.75;;;24.90;99.90;;;;;;5289913;28;20027;-73
2022/07/25 06:17:36;;;;;;;2.92;1.90;;;24.90;99.90;;;;;;5271529;28;20470;-69
2022/07/25 06:20:08;;;;;;;3.65;1.77;;;25.00;99.90;;;;;;5289940;28;20023;-68
2022/07/25 06:22:39;;;;;;;3.28;1.58;;;25.00;99.90;;;;;;5289834;28;20046;-69
2022/07/25 06:25:10;;;;;;;8.40;1.80;;;24.90;99.90;;;;;;5289722;28;20024;-71
2022/07/25 06:27:41;;;;;;;10.00;1.95;;;24.90;99.90;;;;;;5271601;28;20027;-72
2022/07/25 06:30:13;;;;;;;5.65;1.80;;;25.10;99.90;;;;;;5289633;28;20055;-70
2022/07/25 06:32:43;;;;;;;5.95;1.70;;;25.30;99.90;;;;;;5289641;28;20024;-72
2022/07/25 06:35:15;;;;;;;3.65;1.70;;;25.60;99.90;;;;;;5289529;28;20024;-69
2022/07/25 06:37:46;;;;;;;8.90;2.08;;;25.60;99.90;;;;;;5289334;28;20036;-72
2022/07/25 06:40:17;;;;;;;7.55;1.90;;;25.60;99.90;;;;;;5271457;28;20035;-70
2022/07/25 06:42:48;;;;;;;7.20;1.90;;;25.80;99.90;;;;;;5290583;28;20023;-74
2022/07/25 06:45:19;;;;;;;6.07;2.00;;;26.00;99.90;;;;;;5293530;28;20031;-69
2022/07/25 06:47:50;;;;;;;5.43;1.70;;;25.90;99.90;;;;;;5293367;28;20103;-68
2022/07/25 06:50:21;;;;;;;3.90;1.58;;;25.80;99.90;;;;;;5275254;28;20097;-69
2022/07/25 06:52:53;;;;;;;3.92;1.40;;;25.60;99.90;;;;;;5293413;28;20050;-70
2022/07/25 06:55:24;;;;;;;3.67;1.67;;;25.80;99.90;;;;;;5293357;28;20027;-74
2022/07/25 06:57:55;;;;;;;2.83;1.48;;;25.90;99.90;;;;;;5292976;28;20078;-74
2022/07/25 07:00:26;;;;;;;5.72;1.60;;;25.90;99.90;;;;;;5275162;28;20556;-69
2022/07/25 07:03:00;;;;;;;3.40;1.40;;;26.00;99.90;;;;;;5293127;28;20016;-70
2022/07/25 07:05:33;;;;;;;3.95;1.40;;;25.70;99.90;;;;;;5293007;28;20020;-69
2022/07/25 07:08:04;;;;;;;4.53;1.73;;;25.50;99.90;;;;;;5292761;28;20101;-73
2022/07/25 07:10:35;;;;;;;2.70;1.65;;;25.50;99.90;;;;;;5293211;28;20031;-72
2022/07/25 07:13:11;;;;;;;1.80;1.25;;;25.60;99.90;;;;;;5293095;28;20028;-71
2022/07/25 07:15:48;;;;;;;6.00;1.50;;;25.70;99.90;;;;;;5292831;28;20027;-69
2022/07/25 07:18:19;;;;;;;5.18;1.52;;;25.80;99.90;;;;;;5292899;28;20400;-71
2022/07/25 07:20:51;;;;;;;3.45;1.20;;;26.10;99.90;;;;;;5293009;28;20020;-69
2022/07/25 07:23:22;;;;;;;3.22;1.35;;;26.40;99.90;;;;;;5291545;28;20019;-69
2022/07/25 07:25:52;;;;;;;4.10;1.23;;;26.40;99.90;;;;;;5276232;28;20017;-69
2022/07/25 07:28:23;;;;;;;3.80;1.10;;;26.40;99.90;;;;;;5277594;28;20074;-69
2022/07/25 07:30:54;;;;;;;4.88;1.70;;;26.30;99.90;;;;;;5271585;28;20482;-71
2022/07/25 07:33:25;;;;;;;3.95;1.40;;;26.60;99.90;;;;;;5271743;28;20355;-70
2022/07/25 07:35:56;;;;;;;5.38;1.50;;;26.60;99.90;;;;;;5271333;28;20040;-69
2022/07/25 07:38:27;;;;;;;7.07;1.30;;;26.70;99.90;;;;;;5271385;28;20032;-73
2022/07/25 07:40:57;;;;;;;2.10;1.30;;;26.60;99.90;;;;;;5271570;28;20024;-73
2022/07/25 07:43:30;;;;;;;3.80;1.55;;;27.00;99.90;;;;;;5271480;28;20031;-70
2022/07/25 07:46:01;;;;;;;3.95;1.30;;;26.50;99.90;;;;;;5271420;28;20027;-70
2022/07/25 07:48:32;;;;;;;3.70;1.35;;;26.50;99.90;;;;;;5271152;28;20027;-72
2022/07/25 07:51:04;;;;;;;7.50;1.48;;;26.80;99.90;;;;;;5271263;28;20444;-71
2022/07/25 07:56:24;;;;;;;2.80;1.10;;;26.30;99.90;;;;;;5271252;28;20086;-68
2022/07/25 07:58:55;;;;;;;1.30;1.20;;;26.30;99.90;;;;;;5270789;28;20036;-73
2022/07/25 08:01:25;;;;;;;2.25;1.10;;;26.40;99.90;;;;;;5270865;28;20095;-72
2022/07/25 08:03:56;;;;;;;2.88;1.30;;;26.10;99.90;;;;;;5270672;28;20023;-74
2022/07/25 08:06:27;;;;;;;2.92;0.90;;;26.60;99.90;;;;;;5270473;28;20089;-69
2022/07/25 08:08:58;;;;;;;4.43;1.20;;;26.60;99.90;;;;;;5270827;28;20020;-70
2022/07/25 08:11:29;;;;;;;4.97;1.20;;;26.60;99.90;;;;;;5271010;28;20028;-74
2022/07/25 08:14:00;;;;;;;5.90;1.90;;;26.60;99.90;;;;;;5270839;28;20024;-73
2022/07/25 08:16:32;;;;;;;2.92;1.35;;;26.80;99.90;;;;;;5270586;28;20043;-70
2022/07/25 08:19:02;;;;;;;2.72;1.27;;;27.00;99.90;;;;;;5270651;28;20426;-70
2022/07/25 08:21:33;;;;;;;6.45;1.33;;;27.10;99.90;;;;;;5270618;28;20027;-73
2022/07/25 08:24:04;;;;;;;5.53;1.00;;;27.00;99.90;;;;;;5270519;28;20375;-73
2022/07/25 08:26:35;;;;;;;2.47;1.40;;;27.10;99.90;;;;;;5270300;28;20158;-70
2022/07/25 08:29:06;;;;;;;1.92;1.10;;;27.30;99.90;;;;;;5270550;28;20023;-72
2022/07/25 08:31:37;;;;;;;5.15;1.25;;;27.40;99.90;;;;;;5252409;28;20115;-68
2022/07/25 08:34:08;;;;;;;4.25;1.10;;;27.30;99.90;;;;;;5270421;28;20020;-73
2022/07/25 09:17:50;;;;;;;3.90;1.10;;;27.10;99.90;;;;;;5267448;27;20513;-68
2022/07/25 09:20:21;;;;;;;5.05;1.25;;;26.80;99.90;;;;;;5266387;28;20020;-73
2022/07/25 09:22:52;;;;;;;2.60;1.10;;;26.90;99.90;;;;;;5266154;28;20712;-72
2022/07/25 09:25:29;;;;;;;3.90;1.10;;;27.10;99.90;;;;;;5266167;28;20462;-70
2022/07/25 09:28:17;;;;;;;4.10;1.20;;;27.40;99.90;;;;;;5265827;28;20031;-69
2022/07/25 09:31:01;;;;;;;8.75;1.25;;;27.40;99.90;;;;;;5265950;28;20042;-68
2022/07/25 09:33:32;;;;;;;4.97;1.48;;;27.60;99.90;;;;;;5265793;28;20021;-69
2022/07/25 09:36:10;;;;;;;2.00;1.10;;;27.50;99.90;;;;;;5265837;28;20047;-69
2022/07/25 09:39:00;;;;;;;4.77;1.10;;;27.30;99.90;;;;;;5265859;28;20032;-69
2022/07/25 11:10:11;;;;;;;4.63;1.23;;;28.30;99.90;;;;;;5308633;27;20778;-73
2022/07/25 11:12:44;;;;;;;2.53;1.00;;;28.60;99.90;;;;;;5290050;28;20493;-72
2022/07/25 11:15:15;;;;;;;3.60;1.20;;;28.20;99.90;;;;;;5308390;27;20110;-73
2022/07/25 11:17:54;;;;;;;4.00;0.90;;;28.60;99.90;;;;;;5308330;28;20106;-73
2022/07/25 11:20:25;;;;;;;2.40;1.05;;;28.60;99.90;;;;;;5308363;27;20023;-73
2022/07/25 11:22:55;;;;;;;1.75;1.10;;;28.60;99.90;;;;;;5308379;27;20011;-72
2022/07/25 11:25:27;;;;;;;4.90;1.10;;;28.70;99.90;;;;;;5308187;27;20441;-73
2022/07/25 11:28:00;;;;;;;2.40;1.20;;;27.90;99.90;;;;;;5308248;27;20022;-72
2022/07/25 11:30:31;;;;;;;5.50;1.00;;;28.70;99.90;;;;;;5307957;28;20028;-72
2022/07/25 11:33:02;;;;;;;3.20;0.90;;;28.80;99.90;;;;;;5308150;27;20076;-72
2022/07/25 11:35:33;;;;;;;3.03;1.15;;;29.00;99.90;;;;;;5289825;28;20032;-72
2022/07/25 11:38:04;;;;;;;1.60;0.98;;;29.30;99.90;;;;;;5307881;28;20414;-73
2022/07/25 11:40:42;;;;;;;13.27;1.30;;;29.40;99.90;;;;;;5307828;28;20405;-73
2022/07/25 11:43:22;;;;;;;3.38;0.95;;;29.50;99.90;;;;;;5307852;27;20120;-72
2022/07/25 11:46:08;;;;;;;1.40;1.13;;;29.60;99.90;;;;;;5289593;28;20126;-73
2022/07/25 11:48:39;;;;;;;2.33;1.02;;;28.80;99.90;;;;;;5289291;28;20030;-69
2022/07/25 11:51:18;;;;;;;4.18;1.00;;;28.90;99.90;;;;;;5307615;27;20084;-70
2022/07/25 11:53:50;;;;;;;1.65;1.30;;;29.50;99.90;;;;;;5289352;28;20028;-70
2022/07/25 11:56:22;;;;;;;1.92;1.10;;;29.40;99.90;;;;;;5307557;28;20106;-70
2022/07/25 11:58:58;;;;;;;1.75;1.02;;;29.60;99.90;;;;;;5307300;27;20028;-72
2022/07/25 12:01:37;;;;;;;5.10;1.10;;;29.10;99.90;;;;;;5307548;27;20027;-73
2022/07/25 12:04:15;;;;;;;2.22;1.20;;;28.70;99.90;;;;;;5307468;27;20020;-73
2022/07/25 12:06:48;;;;;;;1.70;1.38;;;28.60;99.90;;;;;;5307442;27;20031;-72
2022/07/25 12:09:20;;;;;;;1.40;1.05;;;28.50;99.90;;;;;;5284666;28;20478;-70
2022/07/25 12:12:02;;;;;;;6.65;1.05;;;28.60;99.90;;;;;;5293226;28;20030;-70
2022/07/25 12:14:42;;;;;;;4.13;0.90;;;29.10;99.90;;;;;;5293121;28;20024;-70
2022/07/25 12:17:13;;;;;;;4.72;0.85;;;29.00;99.90;;;;;;5293172;28;20513;-70
2022/07/25 12:19:48;;;;;;;1.98;0.88;;;28.90;99.90;;;;;;5293006;28;20437;-72
2022/07/25 12:22:19;;;;;;;4.00;1.08;;;28.70;99.90;;;;;;5293152;28;20024;-73
2022/07/25 12:24:50;;;;;;;3.13;0.90;;;29.00;99.90;;;;;;5285180;28;20035;-72
2022/07/25 12:27:20;;;;;;;6.50;1.13;;;28.80;99.90;;;;;;5271609;28;20024;-73
2022/07/25 12:29:51;;;;;;;4.18;1.10;;;28.90;99.90;;;;;;5292683;28;20027;-72
2022/07/25 12:32:22;;;;;;;6.00;1.00;;;28.60;99.90;;;;;;5278363;28;20028;-70
2022/07/25 12:34:53;;;;;;;2.05;1.00;;;28.20;99.90;;;;;;5271606;28;20027;-72
2022/07/25 12:37:27;;;;;;;3.47;0.95;;;28.90;99.90;;;;;;5271275;28;20059;-72
2022/07/25 12:39:58;;;;;;;3.35;1.00;;;29.60;99.90;;;;;;5271451;28;20036;-72
2022/07/25 12:42:30;;;;;;;2.90;0.82;;;29.50;99.90;;;;;;5271194;28;20350;-71
2022/07/25 12:45:02;;;;;;;5.70;0.88;;;28.90;99.90;;;;;;5271461;28;20036;-70
2022/07/25 12:47:34;;;;;;;4.93;0.85;;;28.20;99.90;;;;;;5271504;28;20026;-71
2022/07/25 12:50:06;;;;;;;2.55;0.88;;;28.40;99.90;;;;;;5271286;28;20034;-71
2022/07/25 12:52:37;;;;;;;1.92;0.88;;;28.30;99.90;;;;;;5271255;28;20016;-71
2022/07/25 12:55:11;;;;;;;2.30;0.80;;;28.20;99.90;;;;;;5271279;28;20028;-71
2022/07/25 12:57:44;;;;;;;3.58;0.93;;;29.10;99.90;;;;;;5271016;28;20039;-69
2022/07/25 13:00:18;;;;;;;4.32;1.13;;;28.80;99.90;;;;;;5270829;28;20102;-70
2022/07/25 13:02:51;;;;;;;2.38;1.00;;;28.70;99.90;;;;;;5270908;28;20059;-72
2022/07/25 13:05:24;;;;;;;4.25;1.00;;;28.70;99.90;;;;;;5270889;28;20058;-70
2022/07/25 13:07:55;;;;;;;2.10;0.90;;;29.00;99.90;;;;;;5270476;28;20036;-70
2022/07/25 13:10:26;;;;;;;1.70;1.10;;;29.10;99.90;;;;;;5270581;28;20118;-72
2022/07/25 13:12:57;;;;;;;4.18;1.17;;;29.10;99.90;;;;;;5270702;28;20028;-73
2022/07/25 13:15:29;;;;;;;11.07;1.00;;;28.60;99.90;;;;;;5270605;28;20024;-70
2022/07/25 13:18:01;;;;;;;4.30;1.05;;;29.40;99.90;;;;;;5270454;28;20028;-72
2022/07/25 13:20:36;;;;;;;1.25;0.90;;;29.60;99.90;;;;;;5270028;28;20030;-72
2022/07/25 13:23:07;;;;;;;4.60;1.20;;;29.60;99.90;;;;;;5251664;28;20039;-72
2022/07/25 13:25:38;;;;;;;7.15;1.60;;;29.60;99.90;;;;;;5270271;28;20056;-72
2022/07/25 13:28:08;;;;;;;1.20;0.95;;;28.60;99.90;;;;;;5270167;28;20036;-71
2022/07/25 13:30:39;;;;;;;2.58;0.90;;;29.50;99.90;;;;;;5283658;28;20074;-72
2022/07/25 13:33:10;;;;;;;4.10;1.10;;;29.70;99.90;;;;;;5272537;28;20465;-72
2022/07/25 13:35:41;;;;;;;3.88;1.13;;;29.10;99.90;;;;;;5270198;28;20078;-72
2022/07/25 13:38:12;;;;;;;7.43;0.98;;;29.10;99.90;;;;;;5269874;28;20044;-73
2022/07/25 13:40:43;;;;;;;2.53;0.90;;;29.00;99.90;;;;;;5269973;28;20039;-72
2022/07/25 13:43:14;;;;;;;7.55;1.40;;;28.50;99.90;;;;;;5269844;28;20024;-73
2022/07/25 13:45:45;;;;;;;1.85;1.00;;;28.70;99.90;;;;;;5269839;28;20153;-72
2022/07/25 13:48:16;;;;;;;1.88;0.88;;;28.60;99.90;;;;;;5269660;28;20034;-72
2022/07/25 13:50:47;;;;;;;3.95;0.90;;;29.30;99.90;;;;;;5269574;28;20020;-72
2022/07/25 13:53:18;;;;;;;3.65;1.00;;;28.90;99.90;;;;;;5269744;28;20024;-72
2022/07/25 13:55:49;;;;;;;4.03;1.15;;;28.90;99.90;;;;;;5269744;28;20455;-72
2022/07/25 13:58:19;;;;;;;2.22;1.30;;;28.90;99.90;;;;;;5269476;28;20032;-72
2022/07/25 14:00:51;;;;;;;2.70;1.05;;;28.90;99.90;;;;;;5269307;28;20506;-72
2022/07/25 14:03:22;;;;;;;1.83;0.98;;;29.20;99.90;;;;;;5269569;28;20035;-72
2022/07/25 14:05:53;;;;;;;2.78;1.10;;;28.90;99.90;;;;;;5269367;28;20474;-71
2022/07/25 14:08:25;;;;;;;5.05;1.20;;;28.60;99.90;;;;;;5254780;28;20040;-72
2022/07/25 14:10:56;;;;;;;2.50;1.10;;;28.90;99.90;;;;;;5269386;28;20028;-72
2022/07/25 14:13:26;;;;;;;3.13;1.00;;;28.60;99.90;;;;;;5269336;28;20020;-72
2022/07/25 14:15:58;;;;;;;2.05;1.15;;;29.20;99.90;;;;;;5269009;28;20440;-72
2022/07/25 14:18:30;;;;;;;6.03;1.20;;;28.70;99.90;;;;;;5277889;28;20482;-72
2022/07/25 14:21:01;;;;;;;5.22;0.80;;;28.60;99.90;;;;;;5290236;28;20069;-72
2022/07/25 14:23:32;;;;;;;1.42;0.80;;;28.50;99.90;;;;;;5289978;28;20103;-72
2022/07/25 14:26:03;;;;;;;5.38;1.10;;;28.60;99.90;;;;;;5290237;28;20463;-72
2022/07/25 14:28:34;;;;;;;1.63;0.90;;;28.40;99.90;;;;;;5290051;28;20390;-72
2022/07/25 14:31:05;;;;;;;2.17;0.90;;;29.20;99.90;;;;;;5277905;28;20078;-72
2022/07/25 14:33:38;;;;;;;1.58;0.88;;;29.00;99.90;;;;;;5268823;28;20456;-72
2022/07/25 14:36:09;;;;;;;6.43;1.48;;;28.50;99.90;;;;;;5269381;28;20463;-72
2022/07/25 14:38:40;;;;;;;1.90;0.80;;;29.00;99.90;;;;;;5269068;28;20471;-72
2022/07/25 14:41:11;;;;;;;3.05;0.73;;;28.70;99.90;;;;;;5268232;28;20031;-72
2022/07/25 14:43:42;;;;;;;2.95;0.90;;;28.30;99.90;;;;;;5269110;28;20380;-72
2022/07/25 14:46:13;;;;;;;4.10;1.15;;;28.40;99.90;;;;;;5269208;28;20028;-72
2022/07/25 14:48:45;;;;;;;2.38;1.02;;;28.60;99.90;;;;;;5269093;28;20020;-72
2022/07/25 14:51:16;;;;;;;6.60;1.00;;;28.60;99.90;;;;;;5268981;28;20471;-72
2022/07/25 14:53:47;;;;;;;5.35;1.33;;;27.70;99.90;;;;;;5268980;28;20028;-72
2022/07/25 14:56:18;;;;;;;6.95;1.20;;;28.30;99.90;;;;;;5269068;28;20024;-72
2022/07/25 14:58:49;;;;;;;6.55;1.10;;;28.20;99.90;;;;;;5250634;28;20039;-72
2022/07/25 15:01:23;;;;;;;5.53;1.00;;;28.50;99.90;;;;;;5269055;28;20024;-72
2022/07/25 15:03:55;;;;;;;3.35;1.30;;;28.10;99.90;;;;;;5269095;28;20035;-72
2022/07/25 15:06:26;;;;;;;6.07;1.60;;;28.30;99.90;;;;;;5268899;28;20016;-72
2022/07/25 15:08:57;;;;;;;3.35;1.40;;;28.10;99.90;;;;;;5268561;28;20060;-72
2022/07/25 15:11:28;;;;;;;2.85;1.27;;;28.00;99.90;;;;;;5268808;28;20363;-72
2022/07/25 15:13:58;;;;;;;1.95;1.13;;;28.20;99.90;;;;;;5268307;28;20052;-72
2022/07/25 15:16:29;;;;;;;4.65;1.00;;;27.70;99.90;;;;;;5268896;28;20020;-72
2022/07/25 15:19:00;;;;;;;2.95;1.15;;;27.70;99.90;;;;;;5268663;28;20032;-72
2022/07/25 15:21:31;;;;;;;3.13;1.17;;;27.60;99.90;;;;;;5268717;28;20016;-72
2022/07/25 15:24:03;;;;;;;4.32;1.10;;;27.40;99.90;;;;;;5268947;28;20030;-72
2022/07/25 15:26:35;;;;;;;2.33;1.48;;;27.10;99.90;;;;;;5268724;28;20020;-72
2022/07/25 15:29:08;;;;;;;3.33;1.35;;;27.20;99.90;;;;;;5268702;28;20060;-72
2022/07/25 15:31:39;;;;;;;4.20;1.35;;;27.30;99.90;;;;;;5268619;28;20020;-72
2022/07/25 15:34:10;;;;;;;3.60;0.77;;;27.10;99.90;;;;;;5268651;28;20028;-72
2022/07/25 15:36:41;;;;;;;2.35;1.55;;;27.20;99.90;;;;;;5268553;28;20012;-73
2022/07/25 15:39:11;;;;;;;6.47;1.38;;;27.00;99.90;;;;;;5249906;28;20044;-71
2022/07/25 15:41:42;;;;;;;2.35;1.30;;;26.90;99.90;;;;;;5268445;28;20066;-72
2022/07/25 15:44:13;;;;;;;4.55;1.50;;;26.90;99.90;;;;;;5268539;28;20095;-72
2022/07/25 15:46:45;;;;;;;5.18;1.35;;;26.70;99.90;;;;;;5272463;28;20103;-72
2022/07/25 15:49:15;;;;;;;5.97;1.35;;;26.60;99.90;;;;;;5272351;28;20098;-72
2022/07/25 15:51:46;;;;;;;2.42;1.23;;;26.70;99.90;;;;;;5272296;28;20409;-71
2022/07/25 15:54:17;;;;;;;4.38;1.20;;;26.40;99.90;;;;;;5272400;28;20467;-72
2022/07/25 15:56:48;;;;;;;2.13;1.00;;;26.40;99.90;;;;;;5272348;28;20333;-72
2022/07/25 15:59:18;;;;;;;2.65;1.20;;;26.00;99.90;;;;;;5253849;28;20437;-72
2022/07/25 16:01:49;;;;;;;3.13;1.00;;;26.20;99.90;;;;;;5272211;28;20012;-72
2022/07/25 16:04:20;;;;;;;3.88;1.20;;;26.00;99.90;;;;;;5272209;28;20085;-72
2022/07/25 16:06:51;;;;;;;1.10;1.00;;;25.90;99.90;;;;;;5272274;28;20047;-72
2022/07/25 16:09:22;;;;;;;3.30;1.30;;;26.00;99.90;;;;;;5271933;28;20466;-72
2022/07/25 16:11:53;;;;;;;4.65;1.45;;;26.00;99.90;;;;;;5271904;28;20376;-72
2022/07/25 16:14:24;;;;;;;2.92;1.73;;;25.60;99.90;;;;;;5272090;28;20028;-71
2022/07/25 16:16:55;;;;;;;5.57;1.50;;;25.70;99.90;;;;;;5271836;28;20472;-72
2022/07/25 16:19:25;;;;;;;4.43;1.30;;;25.60;99.90;;;;;;5271648;28;20127;-72
2022/07/25 16:21:56;;;;;;;5.32;1.40;;;25.70;99.90;;;;;;5271817;28;20020;-72
2022/07/25 16:24:27;;;;;;;6.32;1.60;;;25.60;99.90;;;;;;5271698;28;20094;-72
2022/07/25 16:26:58;;;;;;;2.85;1.23;;;25.40;99.90;;;;;;5271540;28;20016;-71
2022/07/25 16:29:29;;;;;;;3.63;1.63;;;25.40;99.90;;;;;;5271491;28;20020;-72
2022/07/25 16:32:00;;;;;;;3.50;1.67;;;25.60;99.90;;;;;;5271571;28;20028;-71
2022/07/25 16:34:32;;;;;;;2.08;1.52;;;25.40;99.90;;;;;;5271601;28;20027;-72
2022/07/25 16:37:03;;;;;;;3.92;1.65;;;25.20;99.90;;;;;;5271608;28;20027;-72
2022/07/25 16:39:34;;;;;;;3.22;1.52;;;25.20;99.90;;;;;;5271284;28;20483;-72
2022/07/25 16:42:05;;;;;;;5.55;1.67;;;25.20;99.90;;;;;;5271243;28;20072;-72
2022/07/25 16:44:35;;;;;;;3.97;1.70;;;25.20;99.90;;;;;;5271434;28;20379;-72
2022/07/25 16:47:07;;;;;;;6.55;1.90;;;25.20;99.90;;;;;;5270050;28;20024;-72
2022/07/25 16:49:37;;;;;;;4.93;2.08;;;25.10;99.90;;;;;;5270274;28;20456;-72
2022/07/25 16:52:08;;;;;;;4.13;1.85;;;25.10;99.90;;;;;;5271377;28;20028;-73